Douglassville, PA

12:34 AM EST on January 26, 2015 (GMT -0500)
Red Corner Rd, Union Township | Change Station
CLOSE
Current Station
Personal Weather Station
Location: Douglassville, PA
Elevation: 236 ft
Nearby Weather Stations

Elev 236 ft 40.24 °N, 75.76 °W | Updated 3 minutes ago

Snow
Snow
29.6 °F
Feels Like 30 °F
N
3.0
Wind Variable Wind from WSW
Gusts 3.0 mph

Today
High -- | Low -- °F
--% Chance of Precip.
Yesterday
High -- | Low -- °F
Precip. -- in
7:17 AM 5:14 PM
Waxing Crescent, 39% visible
Pressure 29.96 in
Visibility 5.0 miles
Clouds Overcast 2500 ft
Windchill 30 °F
Dew Point 30 °F
Humidity 100%
Rainfall -999.00 in
Snow Depth Not available.
UV 0 out of 12
Pollen .10 out of 12
Air Quality Not available.
Flu Activity Not available.
METAR KPTW 260454Z AUTO 05008KT 5SM -SN OVC025 M02/M04 A2996 RMK AO2 SNB22 SLP146 P0000 T10171044 400501017

More Conditions Fewer Conditions

Pressure 29.96 in
Visibility 5.0 miles
Clouds Overcast 2500 ft
Windchill 30 °F
Dew Point 30 °F
Humidity 100%
Rainfall -999.00 in
Snow Depth Not available.
UV 0 out of 12
Pollen .10 out of 12
Air Quality Not available.
Flu Activity Not available.
METAR KPTW 260454Z AUTO 05008KT 5SM -SN OVC025 M02/M04 A2996 RMK AO2 SNB22 SLP146 P0000 T10171044 400501017

More Conditions Fewer Conditions

Nowcast | as of 11:09 PM EST on January 25, 2015

Intermittent flurries are occurring late this evening from south central New Jersey westward through southeast Pennsylvania and even into the southern Poconos. A dusting to an inch of new snow is expected in much of this area by sunrise as temperatures continue steadily falling well below freezing. Icy stretches of Highway should be developing.

×

10-Day Weather Forecast

Almanac

Astronomy

Jan. 26, 2015 Rise Set
Actual Time
Civil Twilight
Nautical Twilight
Astronomical Twilight
Moon
Length of Visible Light
Length of Day
Tomorrow will be .
, % of the Moon is Illuminated

Today's Extremes

State Highs State Lows

Community

WunderPhotos

Upload Photos

1,790,153 photos uploaded!

WunderBlogs® & News

Nearby

Air Quality

  Air Quality AQ Index Pollutant
Not available.

Snow Depth

Station Depth Elevation

Earthquake Activity

City Distance Mag. Time & Date
Minimum magnitude displayed is 2.5.

Coastal Water Temperatures

Place Temperature

Nearby Weather Stations